Viejas Grade (78) Station Data

Red Flag Warning: No
Fire Weather Zone: 258
SDGE Region: Eastern
Lat/Lon: 32.864/-116.662

Observations

Time Wind Speed/Gust Temp(F) RH Fuel Moist Fuel Temp(F) Dewpt(F) Tmax(F) Tmin(F) Accum Precip 10-min Precip SL Press(mb)
3/29 8:00am 57 5 G 7 61° 22% - - 22° 61.9° 51.7° - - -
3/29 7:50am 56 6 G 8 60° 21% - - 21° 61.8° 51.7° - - -
3/29 7:40am 60 5 G 7 59° 21% - - 19° 61.8° 51.7° - - -
3/29 7:30am 45 5 G 7 58° 21% - - 18° 61.8° 51.7° - - -
3/29 7:20am 52 5 G 8 57° 21% - - 18° 61.8° 51.7° - - -
3/29 7:10am 306 2 G 4 58° 19% - - 16° 61.8° 51.7° - - -
3/29 7:00am 52 3 G 5 55° 23% - - 18° 61.8° 51.7° - - -
3/29 6:50am 35 6 G 10 56° 22% - - 18° 61.8° 51.7° - - -
3/29 6:40am 31 8 G 11 57° 21% - - 17° 61.8° 51.7° - - -
3/29 6:30am 40 7 G 10 57° 21% - - 17° 61.8° 51.7° - - -
3/29 6:20am 58 11 G 14 59° 19% - - 16° 61.8° 51.7° - - -
3/29 6:10am 55 10 G 13 57° 20% - - 17° 61.8° 51.7° - - -
3/29 6:00am 56 9 G 12 59° 18% - - 16° 61.8° 51.7° - - -
3/29 5:50am 58 5 G 10 57° 20% - - 17° 61.8° 51.7° - - -
3/29 5:40am 38 4 G 7 57° 21% - - 17° 61.8° 51.7° - - -
3/29 5:30am 39 5 G 9 57° 20% - - 16° 61.8° 51.7° - - -
3/29 5:20am 18 1 G 5 58° 19% - - 15° 61.8° 51.7° - - -
3/29 5:10am 176 1 G 5 58° 19% - - 15° 61.8° 51.7° - - -
3/29 5:00am 18 4 G 6 58° 19% - - 15° 61.8° 51.7° - - -
3/29 4:50am 306 1 G 3 57° 19% - - 15° 61.8° 51.7° - - -
3/29 4:40am 94 2 G 4 56° 21% - - 17° 61.8° 51.7° - - -
3/29 4:30am 22 1 G 5 56° 20% - - 16° 61.8° 51.7° - - -
3/29 4:20am 47 2 G 7 56° 20% - - 16° 61.8° 51.7° - - -
3/29 4:10am 66 3 G 6 57° 20% - - 16° 61.8° 51.7° - - -
3/29 4:00am 20 2 G 4 59° 17% - - 14° 61.8° 51.7° - - -
3/29 3:50am 64 2 G 4 59° 17% - - 15° 61.8° 51.7° - - -
3/29 3:40am 35 2 G 4 59° 17% - - 14° 61.8° 51.7° - - -
3/29 3:30am 11 4 G 8 59° 17% - - 15° 61.8° 51.7° - - -
3/29 3:20am 33 3 G 7 58° 18% - - 15° 61.8° 51.7° - - -
3/29 3:10am 27 3 G 5 57° 19% - - 16° 61.8° 51.7° - - -
3/29 3:00am 41 2 G 5 57° 19% - - 15° 61.8° 51.7° - - -
3/29 2:50am 34 5 G 8 57° 20% - - 16° 61.8° 51.7° - - -
3/29 2:40am 38 6 G 9 58° 18% - - 15° 61.8° 51.7° - - -
3/29 2:30am 50 9 G 12 60° 16% - - 13° 61.8° 51.7° - - -
3/29 2:20am 51 11 G 14 61° 15% - - 12° 61.8° 51.7° - - -
3/29 2:10am 57 12 G 15 60° 16% - - 13° 60.9° 51.7° - - -
3/29 2:00am 61 12 G 16 60° 16% - - 14° 60.7° 51.7° - - -
3/29 1:50am 66 12 G 16 59° 17% - - 14° 60.2° 51.7° - - -
3/29 1:40am 66 12 G 17 56° 21% - - 16° 57.9° 51.7° - - -
3/29 1:30am 71 13 G 17 55° 23% - - 18° 55.7° 51.7° - - -
3/29 1:20am 77 13 G 17 54° 25% - - 19° 55.3° 51.7° - - -
3/29 1:10am 68 12 G 17 54° 25% - - 19° 55.3° 51.7° - - -
3/29 1:00am 58 12 G 15 53° 27% - - 20° 54.4° 51.7° - - -
3/29 12:50am 57 11 G 15 54° 27% - - 20° 54.2° 51.7° - - -
3/29 12:40am 63 10 G 16 53° 28% - - 21° 54.1° 51.7° - - -
3/29 12:30am 65 12 G 15 53° 28% - - 21° 54.1° 51.7° - - -
3/29 12:20am 68 11 G 17 53° 29% - - 22° 54° 51.7° - - -
3/29 12:10am 75 13 G 19 52° 32% - - 23° 53.4° 51.7° - - -
3/29 12:00am 72 12 G 16 52° 34% - - 25° 66° 42.9° - - -
3/28 11:50pm 70 12 G 16 53° 34% - - 25° 66° 42.9° - - -
3/28 11:40pm 69 11 G 14 53° 38% - - 28° 66° 42.9° - - -
3/28 11:30pm 73 11 G 15 53° 38% - - 28° 66° 42.9° - - -
3/28 11:20pm 62 9 G 12 53° 37% - - 28° 66° 42.9° - - -
3/28 11:10pm 56 8 G 12 54° 34% - - 27° 66° 42.9° - - -
3/28 11:00pm 49 8 G 13 53° 37% - - 28° 66° 42.9° - - -
3/28 10:50pm 64 8 G 14 53° 41% - - 30° 66° 42.9° - - -
3/28 10:40pm 59 7 G 12 53° 41% - - 30° 66° 42.9° - - -
3/28 10:30pm 49 5 G 10 53° 42% - - 31° 66° 42.9° - - -
3/28 10:20pm 59 8 G 12 53° 48% - - 34° 66° 42.9° - - -
3/28 10:10pm 58 9 G 12 53° 49% - - 35° 66° 42.9° - - -
3/28 10:00pm 57 8 G 12 53° 52% - - 36° 66° 42.9° - - -
3/28 9:50pm 62 9 G 14 53° 54% - - 37° 66° 42.9° - - -
3/28 9:40pm 63 9 G 14 54° 57% - - 39° 66° 42.9° - - -
3/28 9:30pm 44 9 G 12 54° 59% - - 40° 66° 42.9° - - -
3/28 9:20pm 35 6 G 11 55° 60% - - 41° 66° 42.9° - - -
3/28 9:10pm 44 6 G 8 53° 65% - - 42° 66° 42.9° - - -
3/28 9:00pm 21 6 G 8 52° 69% - - 42° 66° 42.9° - - -
3/28 8:50pm 6 4 G 7 52° 68% - - 42° 66° 42.9° - - -
3/28 8:40pm 17 5 G 7 52° 70% - - 42° 66° 42.9° - - -
3/28 8:30pm 38 4 G 5 52° 69% - - 42° 66° 42.9° - - -
3/28 8:20pm 35 3 G 5 53° 65% - - 42° 66° 42.9° - - -
3/28 8:10pm 19 2 G 4 54° 64% - - 42° 66° 42.9° - - -
3/28 8:00pm 14 2 G 4 53° 66% - - 42° 66° 42.9° - - -
3/28 7:50pm 50 3 G 4 53° 66% - - 42° 66° 42.9° - - -
3/28 7:40pm 29 2 G 4 54° 62% - - 42° 66° 42.9° - - -
3/28 7:30pm 302 2 G 4 56° 60% - - 42° 66° 42.9° - - -
3/28 7:20pm 4 3 G 6 57° 58% - - 42° 66° 42.9° - - -
3/28 7:10pm 356 2 G 3 57° 57% - - 42° 66° 42.9° - - -
3/28 7:00pm 296 2 G 4 57° 58% - - 43° 66° 42.9° - - -
3/28 6:50pm 238 3 G 5 59° 54% - - 42° 66° 42.9° - - -
3/28 6:40pm 239 3 G 5 59° 54% - - 42° 66° 42.9° - - -
3/28 6:30pm 239 4 G 7 60° 52% - - 43° 66° 42.9° - - -
3/28 6:20pm 264 4 G 9 60° 52% - - 43° 66° 42.9° - - -
3/28 6:10pm 272 4 G 8 61° 50% - - 43° 66° 42.9° - - -
3/28 6:00pm 265 4 G 9 61° 51% - - 43° 66° 42.9° - - -
3/28 5:50pm 287 6 G 11 61° 51% - - 43° 66° 42.9° - - -
3/28 5:40pm 304 7 G 14 62° 50% - - 43° 66° 42.9° - - -
3/28 5:30pm 224 6 G 11 62° 49% - - 43° 66° 42.9° - - -
3/28 5:20pm 220 11 G 16 62° 49% - - 43° 66° 42.9° - - -
3/28 5:10pm 233 10 G 17 62° 48% - - 43° 66° 42.9° - - -
3/28 5:00pm 235 8 G 14 63° 45% - - 41° 66° 42.9° - - -
3/28 4:50pm 218 10 G 16 63° 46% - - 42° 66° 42.9° - - -
3/28 4:40pm 222 10 G 15 63° 45% - - 41° 66° 42.9° - - -
3/28 4:30pm 221 11 G 18 63° 45% - - 41° 66° 42.9° - - -
3/28 4:20pm 219 12 G 18 63° 42% - - 40° 66° 42.9° - - -
3/28 4:10pm 217 11 G 17 64° 37% - - 38° 66° 42.9° - - -
3/28 4:00pm 218 11 G 17 64° 35% - - 36° 66° 42.9° - - -
3/28 3:50pm 221 9 G 17 65° 33% - - 35° 66° 42.9° - - -
3/28 3:40pm 217 6 G 11 65° 34% - - 36° 65.8° 42.9° - - -
3/28 3:30pm 218 7 G 17 64° 35% - - 36° 65.6° 42.9° - - -
3/28 3:20pm 210 8 G 14 64° 35% - - 36° 65.6° 42.9° - - -
3/28 3:10pm 242 7 G 16 64° 36% - - 36° 65.6° 42.9° - - -
3/28 3:00pm 224 10 G 16 63° 37% - - 36° 65.6° 42.9° - - -
3/28 2:50pm 223 7 G 16 65° 36% - - 37° 65.6° 42.9° - - -
3/28 2:40pm 248 6 G 12 63° 37% - - 37° 64.7° 42.9° - - -
3/28 2:30pm 216 7 G 16 63° 36% - - 36° 64.7° 42.9° - - -
3/28 2:20pm 231 8 G 14 63° 35% - - 35° 64.7° 42.9° - - -
3/28 2:10pm 226 7 G 14 63° 33% - - 33° 64° 42.9° - - -
3/28 2:00pm 232 8 G 15 63° 31% - - 32° 64° 42.9° - - -
3/28 1:50pm 227 9 G 15 63° 32% - - 32° 64° 42.9° - - -
3/28 1:40pm 212 9 G 15 63° 32% - - 33° 63.4° 42.9° - - -
3/28 1:30pm 215 8 G 12 62° 32% - - 32° 62.5° 42.9° - - -
3/28 1:20pm 210 8 G 14 61° 32% - - 31° 62.4° 42.9° - - -
3/28 1:10pm 214 9 G 13 61° 32% - - 31° 62.4° 42.9° - - -
3/28 1:00pm 217 9 G 14 61° 32% - - 31° 61.9° 42.9° - - -
3/28 12:50pm 219 10 G 15 60° 33% - - 31° 61.9° 42.9° - - -
3/28 12:40pm 219 9 G 15 60° 34% - - 32° 61.9° 42.9° - - -
3/28 12:30pm 220 12 G 17 60° 35% - - 32° 61.9° 42.9° - - -
3/28 12:20pm 220 11 G 17 60° 35% - - 32° 61.9° 42.9° - - -
3/28 12:10pm 214 11 G 16 60° 36% - - 33° 61.9° 42.9° - - -
3/28 12:00pm 214 10 G 15 60° 36% - - 33° 61.9° 42.9° - - -
3/28 11:50am 222 8 G 14 60° 35% - - 33° 61.9° 42.9° - - -
3/28 11:40am 213 8 G 13 60° 35% - - 32° 60.7° 42.9° - - -
3/28 11:30am 216 6 G 11 60° 35% - - 32° 60.6° 42.9° - - -
3/28 11:20am 215 9 G 17 59° 35% - - 31° 60.6° 42.9° - - -
3/28 11:10am 220 11 G 14 59° 35% - - 32° 60.6° 42.9° - - -
3/28 11:00am 214 7 G 12 60° 34% - - 31° 60.6° 42.9° - - -
3/28 10:50am 205 6 G 8 59° 34% - - 31° 60.3° 42.9° - - -
3/28 10:40am 205 6 G 9 59° 36% - - 32° 60.3° 42.9° - - -
3/28 10:30am 219 8 G 10 58° 35% - - 31° 60.3° 42.9° - - -
3/28 10:20am 206 5 G 7 58° 35% - - 30° 60.3° 42.9° - - -
3/28 10:10am 208 5 G 7 57° 34% - - 29° 60.3° 42.9° - - -
3/28 10:00am 212 7 G 10 56° 34% - - 28° 60.3° 42.9° - - -
3/28 9:50am 223 8 G 10 56° 32% - - 26° 60.3° 42.9° - - -
3/28 9:40am 221 5 G 8 55° 35% - - 28° 60.3° 42.9° - - -
3/28 9:30am 221 6 G 8 55° 36% - - 28° 60.3° 42.9° - - -
3/28 9:20am 227 5 G 10 56° 32% - - 26° 60.3° 42.9° - - -
3/28 9:10am 64 6 G 12 59° 22% - - 20° 60.3° 42.9° - - -
3/28 9:00am 70 7 G 13 59° 22% - - 20° 59.9° 42.9° - - -
3/28 8:50am 67 9 G 13 58° 23% - - 21° 59.2° 42.9° - - -
3/28 8:40am 64 9 G 13 58° 23% - - 20° 58.5° 42.9° - - -
3/28 8:30am 55 7 G 10 57° 24% - - 20° 58° 42.9° - - -
3/28 8:20am 54 8 G 10 56° 26% - - 22° 56.8° 42.9° - - -
3/28 8:10am 72 7 G 10 54° 30% - - 23° 54.7° 42.9° - - -
3/28 8:00am 65 6 G 8 53° 30% - - 23° 53.9° 42.9° - - -
3/28 7:50am 60 5 G 8 52° 34% - - 25° 52.8° 42.9° - - -
3/28 7:40am 67 7 G 9 51° 33% - - 23° 52.1° 42.9° - - -
3/28 7:30am 37 8 G 11 49° 40% - - 26° 50.4° 42.9° - - -
3/28 7:20am 17 7 G 10 49° 39% - - 25° 50.3° 42.9° - - -
3/28 7:10am 43 3 G 6 48° 37% - - 23° 49.7° 42.9° - - -
3/28 7:00am 36 5 G 7 47° 40% - - 24° 49.7° 42.9° - - -
3/28 6:50am 29 4 G 8 47° 43% - - 25° 49.7° 42.9° - - -
3/28 6:40am 285 4 G 9 48° 42% - - 25° 49.7° 42.9° - - -
3/28 6:30am 269 3 G 6 47° 43% - - 25° 49.7° 42.9° - - -
3/28 6:20am 58 7 G 11 48° 39% - - 24° 49.7° 42.9° - - -
3/28 6:10am 66 10 G 13 46° 45% - - 26° 49.3° 42.9° - - -
3/28 6:00am 67 13 G 16 46° 46% - - 26° 49.3° 42.9° - - -